createdAt,value
2023-05-20T00:03:58.201Z,11.84
2023-05-20T00:09:00.489Z,11.84
2023-05-20T00:14:02.493Z,11.83
2023-05-20T00:19:04.508Z,11.83
2023-05-20T00:24:06.757Z,11.84
2023-05-20T00:29:08.639Z,11.85
2023-05-20T00:34:10.716Z,11.85
2023-05-20T00:39:12.579Z,11.85
2023-05-20T00:44:14.396Z,11.85
2023-05-20T00:49:17.386Z,11.85
2023-05-20T00:54:19.538Z,11.85
2023-05-20T00:59:21.311Z,11.85
2023-05-20T01:04:24.009Z,11.84
2023-05-20T01:09:26.346Z,11.83
2023-05-20T01:14:32.254Z,11.83
2023-05-20T01:19:44.241Z,11.82
2023-05-20T01:24:53.227Z,11.82
2023-05-20T01:29:55.056Z,11.83
2023-05-20T01:34:58.605Z,11.82
2023-05-20T01:40:01.018Z,11.82
2023-05-20T01:45:04.014Z,11.82
2023-05-20T01:50:06.706Z,11.82
2023-05-20T01:55:09.194Z,11.81
2023-05-20T02:00:11.588Z,11.81
2023-05-20T02:05:13.472Z,11.82
2023-05-20T02:10:15.337Z,11.82
2023-05-20T02:15:17.427Z,11.83
2023-05-20T02:20:19.713Z,11.84
2023-05-20T02:25:21.700Z,11.84
2023-05-20T02:30:23.587Z,11.84
2023-05-20T02:35:25.768Z,11.85
2023-05-20T02:40:27.591Z,11.85
2023-05-20T02:45:30.130Z,11.86
2023-05-20T02:50:31.996Z,11.86
2023-05-20T02:55:36.942Z,11.86
2023-05-20T03:00:40.776Z,11.86
2023-05-20T03:05:45.620Z,11.87
2023-05-20T03:10:48.003Z,11.88
2023-05-20T03:15:50.239Z,11.90
2023-05-20T03:20:52.072Z,11.93
2023-05-20T03:25:54.045Z,11.96
2023-05-20T03:30:55.943Z,12.02
2023-05-20T03:35:58.102Z,12.06
2023-05-20T03:41:00.395Z,12.10
2023-05-20T03:46:02.380Z,12.16
2023-05-20T03:51:04.353Z,12.20
2023-05-20T03:56:06.433Z,12.25
2023-05-20T04:01:08.410Z,12.32
2023-05-20T04:06:10.599Z,12.38
2023-05-20T04:11:12.359Z,12.44
2023-05-20T04:16:14.566Z,12.50
2023-05-20T04:21:16.429Z,12.56
2023-05-20T04:26:18.611Z,12.64
2023-05-20T04:31:26.283Z,12.72
2023-05-20T04:36:28.419Z,12.81
2023-05-20T04:41:31.113Z,12.90
2023-05-20T04:46:33.623Z,13.02
2023-05-20T04:51:35.587Z,13.16
2023-05-20T04:56:37.859Z,13.28
2023-05-20T05:01:40.737Z,13.43
2023-05-20T05:06:43.277Z,13.59
2023-05-20T05:11:45.436Z,13.77
2023-05-20T05:16:47.310Z,13.93
2023-05-20T05:21:49.496Z,14.10
2023-05-20T05:26:54.760Z,14.27
2023-05-20T05:31:56.880Z,14.40
2023-05-20T05:36:59.335Z,14.53
2023-05-20T05:42:01.930Z,14.61
2023-05-20T05:47:05.304Z,14.61
2023-05-20T05:52:07.309Z,14.57
2023-05-20T05:57:11.650Z,14.56
2023-05-20T06:02:14.499Z,14.61
2023-05-20T06:07:17.037Z,14.70
2023-05-20T06:12:18.807Z,14.79
2023-05-20T06:17:21.198Z,14.88
2023-05-20T06:22:23.792Z,15.10
2023-05-20T06:27:27.415Z,15.38
2023-05-20T06:32:29.976Z,15.83
2023-05-20T06:37:32.320Z,16.35
2023-05-20T06:42:34.511Z,16.77
2023-05-20T06:47:37.194Z,17.11
2023-05-20T06:52:38.993Z,17.36
2023-05-20T06:57:41.271Z,17.61
2023-05-20T07:02:43.843Z,17.75
2023-05-20T07:07:45.867Z,17.73
2023-05-20T07:12:48.404Z,17.90
2023-05-20T07:17:50.319Z,18.25
2023-05-20T07:22:52.255Z,18.50
2023-05-20T07:27:54.134Z,18.59
2023-05-20T07:32:56.441Z,18.83
2023-05-20T07:37:59.020Z,19.39
2023-05-20T07:43:00.997Z,20.16
2023-05-20T07:48:04.239Z,20.74
2023-05-20T07:53:06.802Z,21.36
2023-05-20T07:58:08.783Z,22.60
2023-05-20T08:03:11.607Z,23.99
2023-05-20T08:08:13.858Z,24.02
2023-05-20T08:13:15.737Z,23.14
2023-05-20T08:18:17.716Z,22.56
2023-05-20T08:23:19.595Z,22.26
2023-05-20T08:28:21.671Z,21.69
2023-05-20T08:33:23.976Z,21.15
2023-05-20T08:38:26.654Z,20.59
2023-05-20T08:43:30.020Z,20.23
2023-05-20T08:48:33.591Z,20.04
2023-05-20T08:53:35.466Z,19.92
2023-05-20T08:58:37.548Z,19.74
2023-05-20T09:03:39.518Z,19.57
2023-05-20T09:08:42.524Z,19.44
2023-05-20T09:13:44.298Z,19.44
2023-05-20T09:18:46.347Z,19.48
2023-05-20T09:23:48.992Z,19.54
2023-05-20T09:28:51.257Z,19.70
2023-05-20T09:33:54.053Z,20.01
2023-05-20T09:39:02.746Z,20.28
2023-05-20T09:44:06.358Z,20.71
2023-05-20T09:49:09.620Z,21.53
2023-05-20T09:54:13.552Z,22.46
2023-05-20T09:59:16.958Z,23.24
2023-05-20T10:04:21.302Z,24.52
2023-05-20T10:09:23.890Z,24.98
2023-05-20T10:14:42.104Z,25.50
2023-05-20T10:19:44.656Z,26.23
2023-05-20T10:24:46.538Z,26.37
2023-05-20T10:29:55.788Z,26.26
2023-05-20T10:35:05.277Z,26.41
2023-05-20T10:40:11.956Z,26.85
2023-05-20T10:45:26.282Z,27.20
2023-05-20T10:50:36.700Z,27.12
2023-05-20T10:55:40.370Z,26.74
2023-05-20T11:00:43.287Z,26.54
2023-05-20T11:05:48.339Z,26.05
2023-05-20T11:10:50.516Z,25.74
2023-05-20T11:15:52.494Z,25.34
2023-05-20T11:20:54.979Z,25.17
2023-05-20T11:25:58.092Z,25.22
2023-05-20T11:31:00.068Z,25.14
2023-05-20T11:36:02.511Z,25.12
2023-05-20T11:41:06.082Z,25.19
2023-05-20T11:46:09.645Z,25.31
2023-05-20T11:51:12.995Z,25.31
2023-05-20T11:56:14.980Z,25.28
2023-05-20T12:01:22.396Z,25.11
2023-05-20T12:06:25.183Z,24.99
2023-05-20T12:11:26.860Z,24.87
2023-05-20T12:16:28.858Z,24.78
2023-05-20T12:21:31.640Z,24.71
2023-05-20T12:26:34.815Z,24.57
2023-05-20T12:31:36.851Z,24.56
2023-05-20T12:36:39.024Z,24.73
2023-05-20T12:41:42.108Z,24.71
2023-05-20T12:46:43.974Z,24.64
2023-05-20T12:51:46.175Z,24.68
2023-05-20T12:56:48.147Z,24.65
2023-05-20T13:01:50.124Z,24.44
2023-05-20T13:06:52.111Z,24.61
2023-05-20T13:11:53.994Z,24.93
2023-05-20T13:16:56.022Z,25.21
2023-05-20T13:21:57.865Z,25.35
2023-05-20T13:27:00.861Z,25.26
2023-05-20T13:32:03.641Z,25.21
2023-05-20T13:37:06.347Z,25.34
2023-05-20T13:42:08.727Z,25.48
2023-05-20T13:47:11.385Z,25.56
2023-05-20T13:52:13.410Z,25.55
2023-05-20T13:57:16.001Z,25.30
2023-05-20T14:02:18.731Z,25.08
2023-05-20T14:07:20.982Z,25.00
2023-05-20T14:12:23.820Z,25.06
2023-05-20T14:17:25.930Z,25.19
2023-05-20T14:22:27.842Z,25.33
2023-05-20T14:27:30.333Z,25.38
2023-05-20T14:32:32.326Z,25.35
2023-05-20T14:37:34.187Z,25.23
2023-05-20T14:42:37.298Z,25.32
2023-05-20T14:47:42.513Z,25.45
2023-05-20T14:52:44.538Z,25.48
2023-05-20T14:57:47.020Z,25.47
2023-05-20T15:02:49.465Z,25.48
2023-05-20T15:07:51.702Z,25.65
2023-05-20T15:12:53.580Z,25.85
2023-05-20T15:17:56.391Z,26.07
2023-05-20T15:23:00.282Z,26.17
2023-05-20T15:28:02.903Z,26.20
2023-05-20T15:33:04.911Z,26.20
2023-05-20T15:38:07.234Z,26.02
2023-05-20T15:43:09.956Z,25.75
2023-05-20T15:48:12.183Z,25.55
2023-05-20T15:53:15.458Z,25.26
2023-05-20T15:58:17.538Z,24.92
2023-05-20T16:03:19.738Z,24.66
2023-05-20T16:08:23.545Z,24.49
2023-05-20T16:13:26.349Z,24.38
2023-05-20T16:18:29.565Z,24.30
2023-05-20T16:23:31.427Z,24.24
2023-05-20T16:28:33.300Z,24.18
2023-05-20T16:33:35.393Z,24.12
2023-05-20T16:38:37.463Z,24.05
2023-05-20T16:43:39.746Z,24.02
2023-05-20T16:48:42.442Z,23.94
2023-05-20T16:53:44.728Z,23.87
2023-05-20T16:58:47.442Z,23.80
2023-05-20T17:03:50.321Z,23.72
2023-05-20T17:08:52.417Z,23.64
2023-05-20T17:13:54.810Z,23.54
2023-05-20T17:18:58.409Z,23.43
2023-05-20T17:24:00.617Z,23.27
2023-05-20T17:29:03.095Z,23.13
2023-05-20T17:34:05.013Z,23.00
2023-05-20T17:39:09.308Z,22.86
2023-05-20T17:44:11.388Z,22.72
2023-05-20T17:49:13.676Z,22.55
2023-05-20T17:54:15.724Z,22.37
2023-05-20T17:59:17.934Z,22.18
2023-05-20T18:04:21.586Z,21.97
2023-05-20T18:09:23.743Z,21.75
2023-05-20T18:14:26.431Z,21.53
2023-05-20T18:19:29.477Z,21.30
2023-05-20T18:24:31.316Z,21.08
2023-05-20T18:29:33.289Z,20.87
2023-05-20T18:34:35.270Z,20.65
2023-05-20T18:39:37.454Z,20.44
2023-05-20T18:44:40.057Z,20.23
2023-05-20T18:49:42.144Z,20.03
2023-05-20T18:54:44.348Z,19.84
2023-05-20T18:59:47.625Z,19.63
2023-05-20T19:04:49.813Z,19.43
2023-05-20T19:09:54.047Z,19.24
2023-05-20T19:14:57.869Z,19.05
2023-05-20T19:19:59.940Z,18.87
2023-05-20T19:25:03.455Z,18.68
2023-05-20T19:30:09.898Z,18.50
2023-05-20T19:35:13.154Z,18.34
2023-05-20T19:40:16.362Z,18.21
2023-05-20T19:45:18.446Z,18.09
2023-05-20T19:50:20.624Z,17.96
2023-05-20T19:55:22.602Z,17.84
2023-05-20T20:00:24.803Z,17.70
2023-05-20T20:05:26.982Z,17.54
2023-05-20T20:10:33.995Z,17.37
2023-05-20T20:15:36.720Z,17.21
2023-05-20T20:20:42.250Z,17.04
2023-05-20T20:25:47.758Z,16.87
2023-05-20T20:30:49.872Z,16.70
2023-05-20T20:35:54.976Z,16.52
2023-05-20T20:40:59.084Z,16.34
2023-05-20T20:46:01.494Z,16.16
2023-05-20T20:51:04.039Z,15.98
2023-05-20T20:56:06.020Z,15.81
2023-05-20T21:01:09.652Z,15.66
2023-05-20T21:06:14.795Z,15.52
2023-05-20T21:11:17.696Z,15.39
2023-05-20T21:16:20.114Z,15.26
2023-05-20T21:21:22.878Z,15.13
2023-05-20T21:26:26.532Z,14.99
2023-05-20T21:31:28.608Z,14.86
2023-05-20T21:36:31.989Z,14.74
2023-05-20T21:41:34.175Z,14.62
2023-05-20T21:46:36.495Z,14.52
2023-05-20T21:51:38.549Z,14.46
2023-05-20T21:56:40.829Z,14.39
2023-05-20T22:01:43.268Z,14.28
2023-05-20T22:06:45.302Z,14.17
2023-05-20T22:11:47.792Z,14.06
2023-05-20T22:16:49.631Z,13.96
2023-05-20T22:21:51.858Z,13.86
2023-05-20T22:26:53.839Z,13.76
2023-05-20T22:31:55.651Z,13.67
2023-05-20T22:36:57.689Z,13.58
2023-05-20T22:41:59.571Z,13.47
2023-05-20T22:47:01.341Z,13.34
2023-05-20T22:52:03.631Z,13.22
2023-05-20T22:57:05.611Z,13.11
2023-05-20T23:02:07.901Z,12.99
2023-05-20T23:07:14.275Z,12.89
2023-05-20T23:12:16.369Z,12.80
2023-05-20T23:17:18.234Z,12.74
2023-05-20T23:22:20.319Z,12.67
2023-05-20T23:27:22.092Z,12.59
2023-05-20T23:32:24.715Z,12.53
2023-05-20T23:37:26.665Z,12.46
2023-05-20T23:42:28.644Z,12.40
2023-05-20T23:47:31.236Z,12.41
2023-05-20T23:52:33.227Z,12.41
2023-05-20T23:57:35.100Z,12.42
